Time;durP1;ratioP1;P1;durP2;ratioP2;P2;SDS_P1;SDS_P2;PMS_P1;PMS_P2;Temp;Humidity;BMP_temperature;BMP_pressure;BME280_temperature;BME280_humidity;BME280_pressure;Samples;Min_cycle;Max_cycle;Signal;HPM_P1;HPM_P2
2022/04/19 00:00:56;;;;;;;10.93;7.82;;;11.60;83.10;;;;;;5008659;28;20050;-66
2022/04/19 00:03:21;;;;;;;11.48;8.52;;;11.50;83.50;;;;;;4998153;28;20111;-66
2022/04/19 00:05:47;;;;;;;11.52;8.13;;;11.50;83.80;;;;;;5014778;28;20073;-66
2022/04/19 00:08:14;;;;;;;13.35;8.23;;;11.50;84.00;;;;;;4998084;28;20133;-66
2022/04/19 00:10:42;;;;;;;12.80;7.80;;;11.50;84.30;;;;;;5004860;28;20079;-67
2022/04/19 00:13:10;;;;;;;11.68;8.10;;;11.50;84.40;;;;;;5018041;28;20060;-66
2022/04/19 00:15:38;;;;;;;11.27;7.80;;;11.40;84.40;;;;;;5017570;28;20772;-66
2022/04/19 00:18:05;;;;;;;11.77;8.07;;;11.40;84.20;;;;;;5034639;28;20046;-65
2022/04/19 00:20:33;;;;;;;12.30;8.23;;;11.40;84.50;;;;;;5017234;28;20490;-66
2022/04/19 00:22:59;;;;;;;12.55;8.20;;;11.40;84.80;;;;;;5035034;28;20116;-67
2022/04/19 00:25:24;;;;;;;11.90;8.40;;;11.40;85.00;;;;;;5034859;28;20120;-66
2022/04/19 00:27:50;;;;;;;12.63;8.93;;;11.30;85.60;;;;;;5017595;28;20561;-66
2022/04/19 00:30:16;;;;;;;12.32;8.30;;;11.30;85.80;;;;;;5034387;28;20458;-67
2022/04/19 00:32:42;;;;;;;11.50;7.65;;;11.30;86.10;;;;;;5017200;28;20374;-66
2022/04/19 00:35:10;;;;;;;11.57;8.20;;;11.20;86.20;;;;;;5001160;28;20115;-66
2022/04/19 00:37:37;;;;;;;12.60;9.00;;;11.20;87.00;;;;;;5017315;28;20675;-66
2022/04/19 00:40:04;;;;;;;13.32;9.50;;;11.20;87.00;;;;;;5016866;28;20358;-67
2022/04/19 00:42:30;;;;;;;11.52;8.45;;;11.10;87.00;;;;;;5017109;28;20049;-66
2022/04/19 00:45:02;;;;;;;12.70;8.43;;;11.10;87.30;;;;;;5034300;28;20064;-66
2022/04/19 00:47:29;;;;;;;15.02;9.27;;;11.10;87.60;;;;;;5016826;28;20133;-67
2022/04/19 00:49:55;;;;;;;14.63;9.23;;;11.00;87.80;;;;;;5034093;28;20083;-66
2022/04/19 00:52:21;;;;;;;12.50;8.45;;;11.00;87.80;;;;;;5034567;28;20069;-66
2022/04/19 00:54:47;;;;;;;13.05;8.65;;;11.00;88.10;;;;;;5034347;28;20514;-66
2022/04/19 00:57:13;;;;;;;13.30;8.48;;;10.90;88.30;;;;;;5016719;28;20068;-65
2022/04/19 00:59:39;;;;;;;11.93;8.52;;;10.90;88.40;;;;;;5034100;28;20052;-67
2022/04/19 01:02:05;;;;;;;11.85;8.45;;;10.90;88.60;;;;;;5016408;28;20033;-66
2022/04/19 01:04:31;;;;;;;12.27;8.05;;;10.80;89.00;;;;;;5034081;28;20041;-68
2022/04/19 01:06:57;;;;;;;11.82;8.63;;;10.80;88.90;;;;;;5034376;28;20514;-66
2022/04/19 01:09:24;;;;;;;14.48;9.00;;;10.70;89.20;;;;;;5016231;28;20060;-66
2022/04/19 01:14:39;;;;;;;11.32;8.45;;;10.70;90.00;;;;;;5014670;28;20131;-67
2022/04/19 01:17:06;;;;;;;12.70;9.05;;;10.70;90.20;;;;;;4996607;28;20046;-66
2022/04/19 01:19:34;;;;;;;13.40;8.43;;;10.70;90.20;;;;;;5013979;28;20038;-67
2022/04/19 01:22:00;;;;;;;13.38;9.10;;;10.60;90.30;;;;;;5031596;28;20029;-67
2022/04/19 01:24:26;;;;;;;11.98;8.20;;;10.60;90.30;;;;;;5016442;28;20098;-66
2022/04/19 01:26:57;;;;;;;12.05;9.07;;;10.60;90.20;;;;;;5016469;28;20044;-66
2022/04/19 01:29:24;;;;;;;12.73;8.30;;;10.70;90.10;;;;;;5033529;28;20046;-67
2022/04/19 01:31:51;;;;;;;12.18;8.68;;;10.60;90.00;;;;;;4999859;28;20534;-66
2022/04/19 01:34:18;;;;;;;13.75;8.95;;;10.70;89.70;;;;;;4996729;28;20091;-67
2022/04/19 01:36:43;;;;;;;14.05;9.27;;;10.80;89.30;;;;;;4996544;28;20530;-67
2022/04/19 01:39:10;;;;;;;13.27;9.10;;;10.80;89.10;;;;;;4996319;28;20168;-66
2022/04/19 01:41:37;;;;;;;14.30;9.15;;;10.80;88.90;;;;;;5010102;28;20049;-67
2022/04/19 01:44:05;;;;;;;12.82;8.93;;;10.70;89.10;;;;;;5033526;28;20068;-67
2022/04/19 01:46:31;;;;;;;11.48;8.35;;;10.70;89.20;;;;;;5015886;28;20045;-67
2022/04/19 01:48:57;;;;;;;14.35;8.90;;;10.70;89.40;;;;;;5033248;28;20059;-67
2022/04/19 01:51:24;;;;;;;14.52;8.32;;;10.70;89.30;;;;;;5003499;28;20064;-67
2022/04/19 01:53:50;;;;;;;13.00;8.35;;;10.70;89.40;;;;;;4996294;28;20076;-67
2022/04/19 01:56:16;;;;;;;15.88;8.82;;;10.70;89.40;;;;;;5013816;28;20064;-67
2022/04/19 01:58:42;;;;;;;14.88;9.45;;;10.60;89.30;;;;;;4996199;28;20443;-67
2022/04/19 02:01:09;;;;;;;12.77;8.73;;;10.60;89.40;;;;;;5005929;28;20037;-66
2022/04/19 02:03:34;;;;;;;13.05;8.80;;;10.60;89.70;;;;;;5016261;28;20037;-66
2022/04/19 02:06:01;;;;;;;14.73;8.88;;;10.60;90.10;;;;;;5015953;28;20067;-66
2022/04/19 02:08:27;;;;;;;13.00;8.63;;;10.50;90.20;;;;;;5015801;28;20037;-67
2022/04/19 02:10:52;;;;;;;13.50;9.57;;;10.50;90.30;;;;;;5033270;28;20501;-67
2022/04/19 02:13:19;;;;;;;13.88;9.32;;;10.50;90.30;;;;;;5033311;28;20048;-67
2022/04/19 02:15:46;;;;;;;11.95;8.88;;;10.50;90.30;;;;;;5015985;28;20041;-67
2022/04/19 02:18:11;;;;;;;12.73;8.40;;;10.50;90.40;;;;;;5015260;28;20085;-67
2022/04/19 02:20:37;;;;;;;13.85;9.15;;;10.40;90.40;;;;;;5033280;28;20093;-67
2022/04/19 02:23:03;;;;;;;10.48;8.00;;;10.40;90.50;;;;;;5033517;28;20052;-66
2022/04/19 02:25:29;;;;;;;13.75;8.35;;;10.40;90.50;;;;;;5015729;28;20049;-66
2022/04/19 02:27:55;;;;;;;15.68;8.80;;;10.40;90.70;;;;;;5015434;28;20383;-66
2022/04/19 02:30:21;;;;;;;14.95;9.25;;;10.40;90.80;;;;;;5018375;28;20033;-67
2022/04/19 02:32:48;;;;;;;16.67;9.85;;;10.20;91.00;;;;;;5037281;28;20441;-68
2022/04/19 02:35:16;;;;;;;16.42;11.15;;;10.10;91.10;;;;;;5019890;28;20045;-66
2022/04/19 02:37:53;;;;;;;16.55;11.40;;;10.10;91.40;;;;;;5036731;28;20077;-66
2022/04/19 02:40:20;;;;;;;19.08;12.73;;;9.90;91.60;;;;;;5036931;28;20045;-67
2022/04/19 02:42:47;;;;;;;20.73;13.02;;;9.90;91.90;;;;;;5019436;28;20045;-67
2022/04/19 02:45:13;;;;;;;18.38;12.00;;;9.70;92.30;;;;;;5019227;28;20054;-67
2022/04/19 02:47:41;;;;;;;16.88;12.18;;;9.70;92.60;;;;;;5019142;28;20046;-66
2022/04/19 02:50:07;;;;;;;17.35;12.35;;;9.60;93.00;;;;;;5017914;28;20045;-66
2022/04/19 02:52:32;;;;;;;15.90;11.20;;;9.60;93.20;;;;;;4999839;28;20092;-66
2022/04/19 02:54:58;;;;;;;15.57;10.60;;;9.50;93.50;;;;;;4999541;28;20058;-67
2022/04/19 02:57:23;;;;;;;15.20;10.82;;;9.40;93.80;;;;;;4999599;28;20041;-66
2022/04/19 02:59:49;;;;;;;16.17;10.45;;;9.30;94.30;;;;;;4999459;28;20156;-66
2022/04/19 03:02:15;;;;;;;18.15;10.50;;;9.30;94.50;;;;;;5017685;28;20033;-66
2022/04/19 03:04:41;;;;;;;16.83;10.95;;;9.20;94.70;;;;;;5002806;28;20038;-67
2022/04/19 03:07:07;;;;;;;13.93;9.98;;;9.20;95.00;;;;;;5019075;28;20124;-66
2022/04/19 03:09:32;;;;;;;16.65;10.50;;;9.20;95.40;;;;;;5036333;28;20129;-66
2022/04/19 03:11:58;;;;;;;14.25;10.00;;;9.00;96.00;;;;;;5018541;28;20111;-67
2022/04/19 03:14:25;;;;;;;13.20;9.45;;;9.00;96.40;;;;;;5019172;28;20049;-67
2022/04/19 03:16:51;;;;;;;14.50;10.07;;;8.90;96.80;;;;;;5036307;28;20124;-68
2022/04/19 03:19:17;;;;;;;14.25;9.65;;;8.80;97.00;;;;;;5001956;28;20045;-67
2022/04/19 03:21:43;;;;;;;13.93;9.95;;;8.80;97.00;;;;;;5035898;28;20056;-66
2022/04/19 03:29:37;;;;;;;13.38;9.52;;;8.70;98.40;;;;;;5018353;28;19917;-67
2022/04/19 03:32:03;;;;;;;13.80;10.00;;;8.70;98.10;;;;;;5001425;28;20053;-67
2022/04/19 03:34:28;;;;;;;14.02;8.88;;;8.70;98.30;;;;;;4998877;28;20053;-67
2022/04/19 03:36:54;;;;;;;12.38;9.27;;;8.70;98.60;;;;;;4998696;28;20375;-67
2022/04/19 03:39:19;;;;;;;15.32;8.85;;;8.70;98.50;;;;;;4982142;28;20038;-67
2022/04/19 03:41:45;;;;;;;15.13;9.50;;;8.70;98.60;;;;;;5015340;28;20112;-67
2022/04/19 03:44:12;;;;;;;13.77;9.15;;;8.70;98.90;;;;;;4998289;28;20062;-67
2022/04/19 03:49:22;;;;;;;;;;;8.60;98.90;;;;;;5016409;28;20133;-67
2022/04/19 03:51:48;;;;;;;15.02;9.77;;;8.60;99.40;;;;;;5012988;28;19960;-67
2022/04/19 03:54:14;;;;;;;11.73;8.57;;;8.60;99.10;;;;;;5018157;28;20054;-66
2022/04/19 03:56:39;;;;;;;14.00;9.43;;;8.60;99.10;;;;;;5017854;28;20136;-67
2022/04/19 03:59:06;;;;;;;11.48;8.82;;;8.60;99.10;;;;;;5017768;28;20136;-66
2022/04/19 04:01:31;;;;;;;15.55;9.88;;;8.60;99.20;;;;;;5035291;28;20041;-66
2022/04/19 04:03:57;;;;;;;12.70;9.00;;;8.60;98.90;;;;;;5035592;28;20445;-66
2022/04/19 04:06:22;;;;;;;12.75;8.65;;;8.70;98.80;;;;;;5035162;28;20072;-67
2022/04/19 04:08:48;;;;;;;14.32;9.45;;;8.70;98.50;;;;;;5017449;28;20041;-66
2022/04/19 04:11:14;;;;;;;13.38;8.55;;;8.80;98.30;;;;;;5017518;28;20045;-66
2022/04/19 04:13:39;;;;;;;13.00;9.40;;;8.90;98.10;;;;;;5032040;28;20037;-66
2022/04/19 04:16:05;;;;;;;13.00;9.35;;;9.00;98.00;;;;;;5033856;28;20053;-65
2022/04/19 04:18:31;;;;;;;12.98;9.02;;;9.00;97.80;;;;;;5031754;28;20370;-66
2022/04/19 04:20:56;;;;;;;13.82;10.05;;;8.90;97.60;;;;;;5030816;28;20159;-65
2022/04/19 04:23:22;;;;;;;15.00;9.93;;;9.00;97.60;;;;;;5034025;28;20051;-66
2022/04/19 04:25:47;;;;;;;13.40;9.73;;;8.90;97.50;;;;;;5033796;28;20037;-65
2022/04/19 04:28:13;;;;;;;12.82;9.65;;;8.90;97.50;;;;;;5033418;28;20041;-66
2022/04/19 04:30:38;;;;;;;11.75;8.65;;;8.90;97.60;;;;;;5033416;28;20041;-66
2022/04/19 04:33:04;;;;;;;13.43;9.35;;;8.70;97.90;;;;;;5033215;28;20047;-66
2022/04/19 04:35:30;;;;;;;11.48;8.60;;;8.80;97.90;;;;;;5033006;28;20079;-66
2022/04/19 04:37:55;;;;;;;13.88;9.88;;;8.70;98.00;;;;;;5032431;28;20045;-66
2022/04/19 04:40:21;;;;;;;14.75;9.95;;;8.70;97.90;;;;;;5034130;28;20036;-66
2022/04/19 04:42:46;;;;;;;16.02;10.02;;;8.90;97.80;;;;;;5033320;28;20150;-67
2022/04/19 04:45:12;;;;;;;17.30;11.70;;;8.80;98.00;;;;;;5046934;28;20041;-66
2022/04/19 04:50:29;;;;;;;17.20;11.48;;;8.80;98.30;;;;;;5017952;28;20395;-67
2022/04/19 04:52:55;;;;;;;16.17;11.45;;;8.70;98.00;;;;;;5014175;28;20073;-66
2022/04/19 04:55:21;;;;;;;17.77;12.10;;;8.70;98.10;;;;;;5053779;28;20119;-66
2022/04/19 04:57:47;;;;;;;18.50;12.85;;;8.50;98.60;;;;;;5036269;28;20053;-67
2022/04/19 05:00:12;;;;;;;20.50;13.52;;;8.50;98.80;;;;;;5052412;28;20120;-66
2022/04/19 05:02:39;;;;;;;20.30;13.05;;;8.40;98.80;;;;;;5034284;28;20061;-67
2022/04/19 05:05:05;;;;;;;20.63;13.23;;;8.50;99.00;;;;;;5034344;28;20056;-67
2022/04/19 05:07:31;;;;;;;20.60;12.77;;;8.60;98.90;;;;;;5033872;28;20041;-66
2022/04/19 05:09:58;;;;;;;17.58;12.98;;;8.50;99.00;;;;;;5034255;28;20042;-66
2022/04/19 05:12:24;;;;;;;17.95;12.45;;;8.50;99.10;;;;;;5016126;28;20060;-66
2022/04/19 05:14:49;;;;;;;19.20;12.52;;;8.60;99.20;;;;;;5033853;28;20033;-65
2022/04/19 05:17:15;;;;;;;18.58;13.32;;;8.60;99.10;;;;;;5016604;28;20335;-66
2022/04/19 05:19:40;;;;;;;20.17;12.60;;;8.70;99.00;;;;;;5033514;28;20030;-66
2022/04/19 05:22:06;;;;;;;19.00;12.85;;;8.70;98.90;;;;;;5016387;28;20470;-66
2022/04/19 05:24:31;;;;;;;19.80;13.27;;;8.80;98.70;;;;;;5029343;28;20477;-66
2022/04/19 05:26:57;;;;;;;21.25;13.98;;;8.80;98.80;;;;;;5035167;28;20159;-67
2022/04/19 05:29:23;;;;;;;20.42;13.75;;;8.90;98.60;;;;;;5053466;28;20517;-67
2022/04/19 05:31:48;;;;;;;19.02;12.90;;;9.10;98.50;;;;;;5014486;28;20036;-67
2022/04/19 05:34:14;;;;;;;20.50;13.25;;;9.10;98.60;;;;;;5052876;28;20135;-69
2022/04/19 05:36:40;;;;;;;20.52;13.00;;;9.20;98.50;;;;;;5035822;28;20041;-67
2022/04/19 05:39:05;;;;;;;21.80;14.32;;;9.60;98.20;;;;;;5034930;28;20042;-66
2022/04/19 05:41:31;;;;;;;18.17;12.73;;;10.30;96.70;;;;;;5023320;28;20125;-67
2022/04/19 05:43:57;;;;;;;21.17;13.02;;;11.00;95.80;;;;;;5015583;28;20068;-69
2022/04/19 05:46:22;;;;;;;18.13;12.15;;;11.50;95.10;;;;;;4994574;28;20053;-68
2022/04/19 05:48:49;;;;;;;17.98;12.50;;;12.20;93.80;;;;;;5004321;28;20128;-68
2022/04/19 05:51:14;;;;;;;18.83;12.55;;;13.00;91.80;;;;;;5010008;28;20045;-68
2022/04/19 05:53:40;;;;;;;19.00;12.40;;;13.20;91.40;;;;;;5012235;28;20037;-69
2022/04/19 05:56:06;;;;;;;16.67;11.63;;;13.40;91.00;;;;;;5015108;28;20041;-66
2022/04/19 05:58:31;;;;;;;16.77;12.13;;;14.10;89.50;;;;;;5027950;28;20029;-66
2022/04/19 06:00:57;;;;;;;18.05;11.25;;;14.60;87.70;;;;;;5014892;28;20049;-66
2022/04/19 06:06:07;;;;;;;17.95;11.88;;;14.90;84.60;;;;;;5032226;28;20053;-66
2022/04/19 06:08:33;;;;;;;18.30;12.57;;;15.30;84.10;;;;;;5014554;28;20067;-67
2022/04/19 06:10:58;;;;;;;16.38;11.40;;;15.80;81.90;;;;;;5019826;28;20339;-66
2022/04/19 06:13:24;;;;;;;18.05;12.38;;;16.00;81.10;;;;;;5014430;28;20112;-66
2022/04/19 06:15:50;;;;;;;16.63;11.13;;;16.00;79.10;;;;;;5014566;28;20069;-66
2022/04/19 06:18:15;;;;;;;16.10;11.13;;;16.40;78.00;;;;;;5011338;28;20413;-66
2022/04/19 06:20:41;;;;;;;16.88;12.38;;;15.80;79.70;;;;;;5008863;28;20043;-66
2022/04/19 06:23:06;;;;;;;16.83;11.93;;;15.50;79.20;;;;;;5015587;28;20140;-66
2022/04/19 06:25:32;;;;;;;17.33;12.30;;;15.50;80.20;;;;;;5015724;28;20037;-66
2022/04/19 06:27:57;;;;;;;15.60;10.73;;;15.70;79.50;;;;;;5032666;28;20099;-66
2022/04/19 06:30:24;;;;;;;17.70;11.80;;;16.00;79.10;;;;;;5015550;28;20530;-66
2022/04/19 06:32:50;;;;;;;18.92;12.02;;;16.50;76.70;;;;;;5015219;28;20049;-67
2022/04/19 06:35:16;;;;;;;16.60;11.20;;;16.40;77.80;;;;;;5015237;28;20053;-67
2022/04/19 06:37:42;;;;;;;18.77;11.70;;;16.10;78.40;;;;;;5015052;28;20053;-67
2022/04/19 06:40:09;;;;;;;15.27;11.35;;;16.20;77.30;;;;;;5015407;28;20053;-67
2022/04/19 06:42:35;;;;;;;17.13;11.50;;;16.00;77.90;;;;;;5014899;28;20064;-66
2022/04/19 06:45:01;;;;;;;15.05;10.52;;;16.30;77.50;;;;;;5015424;28;20057;-67
2022/04/19 06:47:27;;;;;;;17.33;11.73;;;16.20;77.20;;;;;;5014749;28;20825;-67
2022/04/19 06:49:57;;;;;;;17.40;11.38;;;16.10;77.20;;;;;;5015456;28;20132;-67
2022/04/19 06:52:23;;;;;;;15.65;10.30;;;16.40;77.30;;;;;;5032968;28;20045;-67
2022/04/19 06:54:49;;;;;;;15.95;11.02;;;16.30;78.30;;;;;;5015592;28;20493;-67
2022/04/19 06:57:14;;;;;;;15.15;10.57;;;16.50;77.80;;;;;;5016790;28;20042;-67
2022/04/19 06:59:40;;;;;;;16.20;10.80;;;16.30;77.70;;;;;;5025966;28;20048;-67
2022/04/19 07:02:05;;;;;;;14.35;10.23;;;16.50;78.50;;;;;;5014790;28;20037;-67
2022/04/19 07:04:31;;;;;;;16.05;11.07;;;17.10;76.60;;;;;;5032812;28;20076;-66
2022/04/19 07:06:57;;;;;;;15.35;11.38;;;17.70;74.50;;;;;;5015328;28;20115;-67
2022/04/19 07:09:22;;;;;;;13.68;9.90;;;17.40;75.90;;;;;;5015037;28;20132;-67
2022/04/19 07:11:48;;;;;;;15.35;10.88;;;17.70;74.70;;;;;;5014701;28;20048;-66
2022/04/19 07:14:13;;;;;;;14.80;10.40;;;17.60;74.90;;;;;;5015402;28;20103;-67
2022/04/19 07:16:39;;;;;;;13.90;9.90;;;17.50;75.10;;;;;;5017716;28;20050;-66
2022/04/19 07:19:04;;;;;;;14.27;10.10;;;17.50;75.10;;;;;;5018254;28;20037;-67
2022/04/19 07:26:59;;;;;;;14.65;9.88;;;16.60;77.80;;;;;;5018549;28;20128;-68
2022/04/19 07:29:24;;;;;;;14.05;9.20;;;16.40;79.00;;;;;;5017989;28;20140;-67
2022/04/19 07:31:51;;;;;;;14.90;8.80;;;16.10;80.00;;;;;;5018236;28;20135;-67
2022/04/19 07:34:17;;;;;;;13.48;9.13;;;15.90;81.10;;;;;;5018284;28;20081;-67
2022/04/19 07:36:43;;;;;;;11.63;8.10;;;15.90;81.40;;;;;;5017980;28;20041;-67
2022/04/19 07:39:10;;;;;;;13.68;9.13;;;15.90;81.10;;;;;;5034089;28;20042;-67
2022/04/19 07:41:37;;;;;;;12.57;8.63;;;16.10;80.40;;;;;;5018330;28;20088;-67
2022/04/19 07:44:04;;;;;;;13.05;8.65;;;16.20;80.90;;;;;;5001568;28;20110;-67
2022/04/19 07:46:33;;;;;;;11.48;8.43;;;16.00;80.70;;;;;;5035733;28;20033;-67
2022/04/19 07:48:59;;;;;;;13.48;8.18;;;16.10;80.90;;;;;;5017678;28;20049;-67
2022/04/19 07:51:25;;;;;;;13.18;8.80;;;16.20;81.50;;;;;;5018121;28;20122;-68
2022/04/19 07:53:51;;;;;;;11.85;8.25;;;16.20;80.30;;;;;;5018226;28;20529;-66
2022/04/19 07:56:17;;;;;;;12.23;7.85;;;16.10;80.10;;;;;;5017791;28;20037;-67
2022/04/19 07:58:47;;;;;;;11.75;7.60;;;16.10;80.50;;;;;;5017850;28;20044;-67
2022/04/19 08:01:13;;;;;;;12.57;7.53;;;16.10;80.40;;;;;;5017707;28;20064;-67
2022/04/19 08:03:38;;;;;;;11.48;8.07;;;16.10;80.90;;;;;;5017806;28;20147;-67
2022/04/19 08:06:05;;;;;;;14.55;8.20;;;16.20;80.70;;;;;;5001788;28;20055;-69
2022/04/19 08:08:31;;;;;;;11.23;7.38;;;16.20;80.20;;;;;;5017745;28;20033;-66
2022/04/19 08:10:57;;;;;;;12.80;7.30;;;16.30;80.40;;;;;;5011455;28;20045;-67
2022/04/19 08:13:24;;;;;;;9.82;7.38;;;16.50;80.20;;;;;;4997883;28;20053;-68
2022/04/19 08:15:49;;;;;;;11.25;6.97;;;16.60;80.00;;;;;;4997875;28;20463;-67
2022/04/19 08:18:16;;;;;;;10.18;7.15;;;16.80;76.50;;;;;;4997530;28;20087;-66
2022/04/19 08:20:42;;;;;;;12.65;7.35;;;16.90;76.00;;;;;;4997911;28;20351;-67
2022/04/19 08:23:08;;;;;;;11.75;6.82;;;16.80;77.20;;;;;;4997915;28;20041;-66
2022/04/19 08:25:35;;;;;;;11.48;7.45;;;16.80;76.70;;;;;;4984390;28;20037;-66
2022/04/19 08:28:01;;;;;;;11.38;7.25;;;16.80;76.50;;;;;;5033476;28;20095;-67
2022/04/19 08:30:27;;;;;;;11.10;6.97;;;16.80;76.40;;;;;;5017648;28;20144;-65
2022/04/19 08:32:52;;;;;;;11.52;7.20;;;16.90;76.50;;;;;;5029663;28;20049;-66
2022/04/19 08:35:18;;;;;;;9.95;6.72;;;16.90;77.10;;;;;;5033572;28;20470;-67
2022/04/19 08:37:45;;;;;;;11.70;7.07;;;17.10;77.00;;;;;;5033295;28;20064;-66
2022/04/19 08:40:12;;;;;;;10.52;6.88;;;17.20;76.70;;;;;;5033468;28;20064;-66
2022/04/19 08:42:40;;;;;;;12.25;7.20;;;17.30;76.30;;;;;;5016865;28;20508;-66
2022/04/19 08:45:07;;;;;;;11.63;6.93;;;17.20;75.80;;;;;;5016448;28;20786;-67
2022/04/19 08:47:37;;;;;;;12.43;7.50;;;17.30;75.80;;;;;;5000368;28;20521;-67
2022/04/19 08:50:10;;;;;;;12.05;7.15;;;17.40;75.90;;;;;;5016935;28;20049;-67
2022/04/19 08:52:36;;;;;;;10.38;6.68;;;17.40;75.90;;;;;;5000365;28;20053;-67
2022/04/19 08:57:48;;;;;;;11.45;6.63;;;17.20;76.20;;;;;;5016265;28;20060;-66
2022/04/19 09:00:14;;;;;;;10.63;6.57;;;17.30;75.80;;;;;;5016850;28;20037;-65
2022/04/19 09:02:39;;;;;;;10.30;6.60;;;17.40;76.80;;;;;;4999743;28;20083;-65
2022/04/19 09:05:20;;;;;;;9.13;6.07;;;17.40;76.80;;;;;;5016801;28;20042;-65
2022/04/19 09:07:48;;;;;;;9.88;6.07;;;17.50;76.40;;;;;;5016291;28;20056;-67
2022/04/19 09:10:15;;;;;;;9.98;6.20;;;17.30;75.80;;;;;;5016245;28;20065;-65
2022/04/19 09:13:07;;;;;;;9.93;5.95;;;17.30;75.80;;;;;;5016008;28;20052;-66
2022/04/19 09:15:43;;;;;;;8.38;5.60;;;17.30;76.60;;;;;;5016424;28;20041;-65
2022/04/19 09:18:33;;;;;;;9.45;5.65;;;17.50;75.60;;;;;;5032848;28;20058;-66
2022/04/19 09:21:01;;;;;;;8.90;5.50;;;17.30;75.80;;;;;;5015987;28;20086;-66
2022/04/19 09:23:31;;;;;;;9.48;4.93;;;17.40;75.30;;;;;;5016177;28;20128;-66
2022/04/19 09:25:59;;;;;;;8.48;5.03;;;17.30;76.30;;;;;;5016223;28;20045;-67
2022/04/19 09:28:26;;;;;;;9.63;5.18;;;17.50;75.80;;;;;;4998938;28;20041;-66
2022/04/19 09:30:56;;;;;;;8.02;4.80;;;17.60;76.60;;;;;;5016725;28;20056;-66
2022/04/19 09:33:23;;;;;;;8.10;4.60;;;17.70;75.40;;;;;;5016268;28;20124;-66
2022/04/19 09:36:02;;;;;;;7.43;4.32;;;17.60;75.70;;;;;;5015926;28;20406;-66
2022/04/19 09:38:38;;;;;;;7.88;4.30;;;17.70;75.80;;;;;;5015402;28;20049;-67
2022/04/19 09:41:14;;;;;;;7.47;4.22;;;17.90;75.40;;;;;;5015938;28;20042;-67
2022/04/19 09:43:40;;;;;;;8.13;4.30;;;17.90;75.60;;;;;;5015604;28;20037;-66
2022/04/19 09:46:06;;;;;;;9.98;4.57;;;18.10;74.30;;;;;;5015760;28;20037;-65
2022/04/19 09:48:37;;;;;;;8.77;4.80;;;17.90;75.50;;;;;;5015810;28;20489;-66
2022/04/19 09:51:04;;;;;;;8.38;4.65;;;18.10;76.00;;;;;;5015879;28;20120;-66
2022/04/19 09:53:47;;;;;;;8.40;4.20;;;18.10;75.80;;;;;;4999512;28;20148;-66
2022/04/19 09:56:20;;;;;;;10.07;4.65;;;18.20;77.30;;;;;;4999538;28;20455;-65
2022/04/19 09:58:51;;;;;;;7.55;4.57;;;18.10;75.60;;;;;;5015412;28;20037;-66
2022/04/19 10:09:35;;;;;;;8.15;4.63;;;18.40;72.60;;;;;;5031637;28;20064;-67
2022/04/19 10:12:03;;;;;;;10.03;4.60;;;18.10;73.60;;;;;;5011554;28;20041;-67
2022/04/19 10:14:33;;;;;;;7.20;4.32;;;18.10;74.10;;;;;;5031623;28;20358;-67
2022/04/19 10:17:00;;;;;;;6.60;3.60;;;18.10;74.20;;;;;;5014620;28;20474;-66
2022/04/19 10:19:27;;;;;;;6.18;3.78;;;18.10;73.70;;;;;;5031664;28;20058;-67
2022/04/19 10:21:58;;;;;;;5.40;3.50;;;18.10;73.90;;;;;;5021599;28;20041;-66
2022/04/19 10:24:27;;;;;;;4.00;2.65;;;18.20;72.00;;;;;;5001001;28;20040;-67
2022/04/19 10:26:52;;;;;;;5.22;3.60;;;18.30;70.10;;;;;;5031454;28;20537;-66
2022/04/19 10:29:23;;;;;;;6.22;3.92;;;18.10;72.10;;;;;;5030805;28;20042;-67
2022/04/19 10:32:01;;;;;;;5.75;3.33;;;18.10;72.60;;;;;;5013826;28;20109;-65
2022/04/19 10:34:32;;;;;;;6.05;4.35;;;18.00;72.90;;;;;;4999391;28;20600;-67
2022/04/19 10:37:23;;;;;;;5.40;3.00;;;18.10;72.40;;;;;;4998359;28;20053;-68
2022/04/19 10:39:51;;;;;;;6.43;3.03;;;18.10;71.70;;;;;;5015639;28;20102;-67
2022/04/19 10:43:16;;;;;;;5.55;2.90;;;18.00;71.50;;;;;;4998581;28;20040;-65
2022/04/19 10:45:46;;;;;;;3.95;2.55;;;17.90;70.50;;;;;;4936886;28;20055;-66
2022/04/19 10:48:14;;;;;;;4.38;2.30;;;17.80;71.40;;;;;;4952386;29;20047;-66
2022/04/19 10:50:40;;;;;;;6.72;2.70;;;18.00;71.80;;;;;;4988119;28;20128;-68
2022/04/19 10:53:07;;;;;;;6.85;2.75;;;18.20;70.10;;;;;;4999564;28;20100;-66
2022/04/19 10:55:34;;;;;;;4.90;2.58;;;18.30;68.00;;;;;;4999312;28;20120;-65
2022/04/19 10:58:16;;;;;;;4.75;1.95;;;18.30;70.20;;;;;;4998934;28;20395;-65
2022/04/19 11:00:52;;;;;;;7.40;2.30;;;18.40;65.90;;;;;;5001356;28;20080;-65
2022/04/19 11:03:20;;;;;;;3.60;2.30;;;18.50;64.00;;;;;;5018772;28;20038;-65
2022/04/19 11:05:46;;;;;;;3.13;2.10;;;18.70;61.20;;;;;;5018866;28;20048;-65
2022/04/19 11:08:24;;;;;;;3.58;2.03;;;18.60;62.50;;;;;;5018338;28;20120;-65
2022/04/19 11:10:51;;;;;;;5.45;2.30;;;18.70;63.30;;;;;;5017801;28;20041;-66
2022/04/19 11:13:17;;;;;;;4.07;2.22;;;18.80;63.70;;;;;;5018620;28;20049;-66
2022/04/19 11:15:43;;;;;;;4.28;2.60;;;18.70;61.40;;;;;;5002561;28;20056;-65
2022/04/19 11:18:23;;;;;;;4.55;1.95;;;18.60;62.80;;;;;;5035413;28;20045;-65
2022/04/19 11:20:53;;;;;;;4.43;2.20;;;18.70;60.00;;;;;;5017586;28;20164;-66
2022/04/19 11:23:20;;;;;;;4.30;1.92;;;18.80;58.40;;;;;;5018484;28;20347;-66
2022/04/19 11:25:47;;;;;;;6.03;2.17;;;18.80;57.40;;;;;;5001889;28;20145;-67
2022/04/19 11:28:16;;;;;;;3.92;2.75;;;18.80;59.00;;;;;;5018244;28;20123;-66
2022/04/19 11:30:58;;;;;;;3.35;2.38;;;18.80;60.20;;;;;;5018362;28;20053;-65
2022/04/19 11:33:24;;;;;;;4.35;2.50;;;18.70;59.70;;;;;;5018550;28;20061;-66
2022/04/19 11:36:11;;;;;;;4.43;2.15;;;19.00;59.70;;;;;;5002165;28;20048;-66
2022/04/19 11:38:49;;;;;;;5.43;2.25;;;19.00;58.50;;;;;;5001745;28;20117;-65
2022/04/19 11:46:58;;;;;;;;;;;18.80;57.40;;;;;;5007166;28;20091;-66
2022/04/19 11:49:26;;;;;;;3.08;1.48;;;18.90;57.50;;;;;;5018134;28;19957;-65
2022/04/19 11:51:57;;;;;;;3.13;1.60;;;18.60;56.80;;;;;;5006614;28;20045;-65
2022/04/19 11:54:32;;;;;;;7.63;1.90;;;18.60;56.80;;;;;;5015879;28;20042;-65
2022/04/19 11:57:06;;;;;;;4.22;2.00;;;18.40;57.60;;;;;;5015333;28;20116;-65
2022/04/19 11:59:33;;;;;;;;;;;18.50;58.70;;;;;;4998700;28;20096;-65
2022/04/19 12:02:00;;;;;;;3.63;2.03;;;18.10;59.70;;;;;;5008775;28;19995;-65
2022/04/19 12:04:25;;;;;;;3.03;2.15;;;18.40;58.90;;;;;;5017688;28;20041;-65
2022/04/19 12:06:53;;;;;;;5.10;2.30;;;18.60;58.40;;;;;;5017380;28;20045;-65
2022/04/19 12:09:19;;;;;;;2.95;2.08;;;18.70;59.40;;;;;;5035238;28;20144;-66
2022/04/19 12:11:47;;;;;;;4.18;2.20;;;18.80;60.30;;;;;;5034274;28;20107;-65
2022/04/19 12:14:31;;;;;;;4.05;2.10;;;18.80;60.50;;;;;;5035352;28;20501;-65
2022/04/19 12:16:57;;;;;;;;;;;18.90;60.80;;;;;;5017777;28;20064;-65
2022/04/19 12:19:34;;;;;;;2.90;1.90;;;19.00;60.60;;;;;;5017582;28;19917;-65
2022/04/19 12:22:01;;;;;;;4.35;2.38;;;18.90;61.10;;;;;;5004987;28;20437;-66
2022/04/19 12:24:31;;;;;;;4.53;2.05;;;18.80;61.00;;;;;;4997673;28;20056;-65
2022/04/19 12:27:03;;;;;;;4.43;1.73;;;19.00;60.60;;;;;;4997360;28;20733;-65
2022/04/19 12:29:29;;;;;;;2.72;1.63;;;18.90;60.80;;;;;;5015040;28;20237;-65
2022/04/19 12:32:00;;;;;;;2.45;1.50;;;18.80;61.70;;;;;;4997965;28;20131;-65
2022/04/19 12:34:37;;;;;;;5.07;1.80;;;18.70;60.20;;;;;;4997503;28;20073;-65
2022/04/19 12:37:16;;;;;;;4.18;1.80;;;18.70;61.90;;;;;;4997185;28;20419;-64
2022/04/19 12:39:59;;;;;;;5.25;2.05;;;18.60;62.00;;;;;;4997961;28;20135;-64
2022/04/19 12:42:25;;;;;;;5.90;1.90;;;18.80;62.80;;;;;;4997916;28;20037;-65
2022/04/19 12:45:08;;;;;;;4.05;1.90;;;18.70;62.30;;;;;;4990794;28;20115;-64
2022/04/19 12:47:34;;;;;;;3.17;1.87;;;18.70;62.30;;;;;;5016650;28;20038;-65
2022/04/19 12:50:11;;;;;;;3.60;1.63;;;18.60;62.90;;;;;;5019464;28;20371;-64
2022/04/19 12:52:37;;;;;;;3.03;1.60;;;18.90;61.70;;;;;;5033810;28;20534;-65
2022/04/19 12:55:04;;;;;;;3.75;1.70;;;18.90;62.90;;;;;;5016594;28;20140;-65
2022/04/19 12:57:30;;;;;;;2.83;1.60;;;19.00;62.60;;;;;;5018031;28;20041;-63
2022/04/19 12:59:57;;;;;;;3.60;1.70;;;19.00;62.50;;;;;;5032837;28;20145;-64
2022/04/19 13:02:23;;;;;;;2.58;1.80;;;18.90;61.80;;;;;;5033209;28;20443;-64
2022/04/19 13:04:49;;;;;;;5.97;1.90;;;18.70;62.40;;;;;;5016102;28;20151;-63
2022/04/19 13:12:44;;;;;;;2.65;1.65;;;18.80;62.90;;;;;;5033259;28;20466;-66
2022/04/19 13:15:11;;;;;;;4.60;2.00;;;19.00;62.90;;;;;;5016230;28;20052;-66
2022/04/19 13:17:39;;;;;;;5.82;1.95;;;19.20;61.20;;;;;;5015865;28;20490;-66
2022/04/19 13:20:06;;;;;;;3.63;1.80;;;19.20;61.80;;;;;;5016537;28;20044;-66
2022/04/19 13:22:33;;;;;;;2.92;2.00;;;19.00;62.80;;;;;;5016171;28;20120;-66
2022/04/19 13:24:59;;;;;;;3.33;1.73;;;19.10;63.60;;;;;;5016131;28;20144;-65
2022/04/19 13:27:32;;;;;;;3.03;2.20;;;19.00;63.00;;;;;;5015576;28;20072;-66